Time;durP1;ratioP1;P1;durP2;ratioP2;P2;SDS_P1;SDS_P2;PMS_P1;PMS_P2;Temp;Humidity;BMP_temperature;BMP_pressure;BME280_temperature;BME280_humidity;BME280_pressure;Samples;Min_cycle;Max_cycle;Signal;HPM_P1;HPM_P2
2022/03/04 00:00:38;;;;;;;;;;;;;;;-143.90;100.00;55158.88;2097946;28;19978;-63
2022/03/04 00:01:59;;;;;;;;;;;;;;;-143.90;100.00;55158.88;2098835;28;20452;-63
2022/03/04 00:03:20;;;;;;;;;;;;;;;-143.90;100.00;55148.94;2098439;28;19922;-63
2022/03/04 00:04:41;;;;;;;;;;;;;;;-143.90;100.00;55162.84;2097670;28;19993;-63
2022/03/04 00:06:02;;;;;;;;;;;;;;;-143.90;100.00;55143.00;2098273;28;20447;-63
2022/03/04 00:07:22;;;;;;;;;;;;;;;-143.90;100.00;55174.75;2099001;28;19924;-64
2022/03/04 00:08:44;;;;;;;;;;;;;;;-143.90;100.00;55190.66;2098413;28;19924;-63
2022/03/04 00:10:05;;;;;;;;;;;;;;;-143.90;100.00;55158.88;2097538;28;19954;-63
2022/03/04 00:11:25;;;;;;;;;;;;;;;-143.90;100.00;55162.84;2096989;28;20096;-63
2022/03/04 00:12:46;;;;;;;;;;;;;;;-143.90;100.00;55166.81;2098042;28;20303;-63
2022/03/04 00:14:08;;;;;;;;;;;;;;;-143.90;100.00;55168.81;2097674;28;19954;-63
2022/03/04 00:15:29;;;;;;;;;;;;;;;-143.90;100.00;55186.69;2098254;28;19924;-63
2022/03/04 00:16:49;;;;;;;;;;;;;;;-143.90;100.00;55178.72;2096116;28;19924;-64
2022/03/04 00:18:10;;;;;;;;;;;;;;;-143.90;100.00;55139.03;2098518;28;20602;-63
2022/03/04 00:19:31;;;;;;;;;;;;;;;-143.90;100.00;55192.63;2098805;28;19924;-63
2022/03/04 00:20:52;;;;;;;;;;;;;;;-143.90;100.00;55166.81;2096909;28;19923;-63
2022/03/04 00:22:15;;;;;;;;;;;;;;;-143.90;100.00;55158.88;2089633;28;20419;-63
2022/03/04 00:23:36;;;;;;;;;;;;;;;-143.90;100.00;55166.81;2103811;28;19939;-63
2022/03/04 00:24:57;;;;;;;;;;;;;;;-143.90;100.00;55162.84;2100940;28;19931;-63
2022/03/04 00:26:17;;;;;;;;;;;;;;;-143.90;100.00;55186.69;2097115;28;19920;-63
2022/03/04 00:27:38;;;;;;;;;;;;;;;-143.90;100.00;55162.84;2097796;28;19967;-63
2022/03/04 00:28:59;;;;;;;;;;;;;;;-143.90;100.00;55178.72;2098621;28;19989;-63
2022/03/04 00:30:20;;;;;;;;;;;;;;;-143.90;100.00;55166.81;2090201;28;20016;-63
2022/03/04 00:31:41;;;;;;;;;;;;;;;-143.90;100.00;55152.91;2095626;28;19920;-63
2022/03/04 00:33:01;;;;;;;;;;;;;;;-143.90;100.00;55135.03;2096780;28;19931;-63
2022/03/04 00:34:22;;;;;;;;;;;;;;;-143.90;100.00;55194.63;2096564;28;19924;-63
2022/03/04 00:35:43;;;;;;;;;;;;;;;-143.90;100.00;55162.84;2096709;28;20011;-63
2022/03/04 00:37:04;;;;;;;;;;;;;;;-143.90;100.00;55127.09;2097309;28;19920;-63
2022/03/04 00:38:24;;;;;;;;;;;;;;;-143.90;100.00;55139.03;2097368;28;19920;-63
2022/03/04 00:39:45;;;;;;;;;;;;;;;-143.90;100.00;55127.09;2097939;28;19990;-63
2022/03/04 00:41:06;;;;;;;;;;;;;;;-143.90;100.00;55190.66;2097592;28;20005;-63
2022/03/04 00:42:29;;;;;;;;;;;;;;;-143.90;100.00;55146.97;2098403;28;20339;-63
2022/03/04 00:43:50;;;;;;;;;;;;;;;-143.90;100.00;55160.84;2097661;28;19959;-63
2022/03/04 00:45:11;;;;;;;;;;;;;;;-143.90;100.00;55141.00;2096756;28;19966;-63
2022/03/04 00:46:32;;;;;;;;;;;;;;;-143.90;100.00;55198.59;2098107;28;19934;-63
2022/03/04 00:47:53;;;;;;;;;;;;;;;-143.90;100.00;55150.94;2098069;28;19924;-63
2022/03/04 00:49:13;;;;;;;;;;;;;;;-143.90;100.00;55152.91;2099773;27;19925;-63
2022/03/04 00:50:34;;;;;;;;;;;;;;;-143.90;100.00;55198.59;2098454;28;19920;-63
2022/03/04 00:51:55;;;;;;;;;;;;;;;-143.90;100.00;55152.91;2097685;28;19927;-63
2022/03/04 00:53:17;;;;;;;;;;;;;;;-143.90;100.00;55146.97;2097066;28;20027;-63
2022/03/04 00:54:38;;;;;;;;;;;;;;;-143.90;100.00;55194.63;2096904;28;19927;-63
2022/03/04 00:55:59;;;;;;;;;;;;;;;-143.90;100.00;55154.91;2097553;28;20050;-63
2022/03/04 00:57:20;;;;;;;;;;;;;;;-143.90;100.00;55150.94;2096982;28;19946;-63
2022/03/04 00:58:40;;;;;;;;;;;;;;;-143.90;100.00;55135.03;2097205;28;20356;-63
2022/03/04 01:00:03;;;;;;;;;;;;;;;-143.90;100.00;55154.91;2097281;28;19920;-63
2022/03/04 01:01:23;;;;;;;;;;;;;;;-143.90;100.00;55188.66;2096461;28;19928;-63
2022/03/04 01:02:44;;;;;;;;;;;;;;;-143.90;100.00;55164.84;2098422;28;19997;-63
2022/03/04 01:04:05;;;;;;;;;;;;;;;-143.90;100.00;55170.78;2098280;27;19928;-63
2022/03/04 01:05:25;;;;;;;;;;;;;;;-143.90;100.00;55188.66;2099091;28;19998;-63
2022/03/04 01:06:47;;;;;;;;;;;;;;;-143.90;100.00;55158.88;2098550;27;19920;-63
2022/03/04 01:08:08;;;;;;;;;;;;;;;-143.90;100.00;55146.97;2096925;28;19964;-63
2022/03/04 01:09:29;;;;;;;;;;;;;;;-143.90;100.00;55174.75;2098360;28;19920;-63
2022/03/04 01:10:50;;;;;;;;;;;;;;;-143.90;100.00;55166.81;2098060;28;19920;-63
2022/03/04 01:12:10;;;;;;;;;;;;;;;-143.90;100.00;55190.66;2097799;28;19963;-63
2022/03/04 01:13:31;;;;;;;;;;;;;;;-143.90;100.00;55150.94;2097476;28;20038;-63
2022/03/04 01:14:54;;;;;;;;;;;;;;;-143.90;100.00;55170.78;2099355;28;19920;-63
2022/03/04 01:16:15;;;;;;;;;;;;;;;-143.90;100.00;55190.66;2089530;28;19924;-63
2022/03/04 01:17:36;;;;;;;;;;;;;;;-143.90;100.00;55152.91;2094641;28;19928;-63
2022/03/04 01:18:57;;;;;;;;;;;;;;;-143.90;100.00;55160.84;2096116;28;20644;-63
2022/03/04 01:20:18;;;;;;;;;;;;;;;-143.90;100.00;55148.94;2097437;28;20007;-61
2022/03/04 01:21:39;;;;;;;;;;;;;;;-143.90;100.00;55174.75;2098680;28;19980;-63
2022/03/04 01:23:00;;;;;;;;;;;;;;;-143.90;100.00;55156.88;2097760;28;20537;-63
2022/03/04 01:24:21;;;;;;;;;;;;;;;-143.90;100.00;55162.84;2099070;28;19965;-63
2022/03/04 01:25:42;;;;;;;;;;;;;;;-143.90;100.00;55127.09;2097684;28;19920;-65
2022/03/04 01:27:02;;;;;;;;;;;;;;;-143.90;100.00;55168.81;2089885;28;19920;-63
2022/03/04 01:28:23;;;;;;;;;;;;;;;-143.90;100.00;55160.84;2089165;28;19935;-63
2022/03/04 01:29:44;;;;;;;;;;;;;;;-143.90;100.00;55186.69;2090154;28;19927;-64
2022/03/04 01:31:04;;;;;;;;;;;;;;;-143.90;100.00;55166.81;2089057;28;20757;-63
2022/03/04 01:32:25;;;;;;;;;;;;;;;-143.90;100.00;55146.97;2088048;28;19924;-63
2022/03/04 01:33:46;;;;;;;;;;;;;;;-143.90;100.00;55166.81;2088889;28;19920;-63
2022/03/04 01:35:08;;;;;;;;;;;;;;;-143.90;100.00;55186.69;2089818;28;19936;-64
2022/03/04 01:36:32;;;;;;;;;;;;;;;-143.90;100.00;55164.84;2088689;28;20523;-64
2022/03/04 01:37:53;;;;;;;;;;;;;;;-143.90;100.00;55144.97;2090281;28;20038;-64
2022/03/04 01:39:14;;;;;;;;;;;;;;;-143.90;100.00;55135.03;2091081;28;19943;-64
2022/03/04 01:40:35;;;;;;;;;;;;;;;-143.90;100.00;55184.69;2087542;28;19998;-64
2022/03/04 01:41:55;;;;;;;;;;;;;;;-143.90;100.00;55154.91;2089641;28;19928;-64
2022/03/04 01:43:16;;;;;;;;;;;;;;;-143.90;100.00;55186.69;2088472;28;19927;-64
2022/03/04 01:44:36;;;;;;;;;;;;;;;-143.90;100.00;55162.84;2089131;28;19982;-64
2022/03/04 01:46:00;;;;;;;;;;;;;;;-143.90;100.00;55194.63;2090963;28;19920;-64
2022/03/04 01:47:21;;;;;;;;;;;;;;;-143.90;100.00;55190.66;2095348;28;20050;-64
2022/03/04 01:48:43;;;;;;;;;;;;;;;-143.90;100.00;55160.84;2092923;28;20382;-64
2022/03/04 01:50:04;;;;;;;;;;;;;;;-143.90;100.00;55186.69;2089108;28;19924;-64
2022/03/04 01:51:25;;;;;;;;;;;;;;;-143.90;100.00;55150.94;2088838;28;19926;-64
2022/03/04 01:52:46;;;;;;;;;;;;;;;-143.90;100.00;55158.88;2089895;28;19920;-64
2022/03/04 01:54:06;;;;;;;;;;;;;;;-143.90;100.00;55158.88;2089552;28;19920;-64
2022/03/04 01:55:27;;;;;;;;;;;;;;;-143.90;100.00;55198.59;2089309;28;20380;-64
2022/03/04 01:56:48;;;;;;;;;;;;;;;-143.90;100.00;55206.53;2087083;28;20312;-63
2022/03/04 01:58:09;;;;;;;;;;;;;;;-143.90;100.00;55166.81;2089131;28;20031;-64
2022/03/04 01:59:30;;;;;;;;;;;;;;;-143.90;100.00;55166.81;2089379;28;20573;-64
2022/03/04 02:00:50;;;;;;;;;;;;;;;-143.90;100.00;55162.84;2096088;28;19977;-64
2022/03/04 02:02:11;;;;;;;;;;;;;;;-143.90;100.00;55190.66;2092558;28;19930;-64
2022/03/04 02:03:32;;;;;;;;;;;;;;;-143.90;100.00;55194.63;2089796;28;19927;-64
2022/03/04 02:04:52;;;;;;;;;;;;;;;-143.90;100.00;55133.06;2089414;28;19979;-64
2022/03/04 02:06:14;;;;;;;;;;;;;;;-143.90;100.00;55174.75;2088956;28;19979;-64
2022/03/04 02:07:35;;;;;;;;;;;;;;;-143.90;100.00;55162.84;2088672;28;19960;-63
2022/03/04 02:08:56;;;;;;;;;;;;;;;-143.90;100.00;55166.81;2089369;28;19920;-63
2022/03/04 02:10:16;;;;;;;;;;;;;;;-143.90;100.00;55158.88;2089864;28;19928;-64
2022/03/04 02:11:38;;;;;;;;;;;;;;;-143.90;100.00;55148.94;2088658;28;19917;-64
2022/03/04 02:12:59;;;;;;;;;;;;;;;-143.90;100.00;55190.66;2087821;28;19920;-63
2022/03/04 02:14:20;;;;;;;;;;;;;;;-143.90;100.00;55158.88;2088592;28;20300;-64
2022/03/04 02:15:44;;;;;;;;;;;;;;;-143.90;100.00;55154.91;2089064;28;19925;-64
2022/03/04 02:17:05;;;;;;;;;;;;;;;-143.90;100.00;55190.66;2089277;28;19970;-63
2022/03/04 02:18:25;;;;;;;;;;;;;;;-143.90;100.00;55143.00;2089615;28;19925;-64
2022/03/04 02:19:50;;;;;;;;;;;;;;;-143.90;100.00;55127.09;2086676;28;19920;-64
2022/03/04 02:21:11;;;;;;;;;;;;;;;-143.90;100.00;55166.81;2087402;28;19932;-64
2022/03/04 02:22:32;;;;;;;;;;;;;;;-143.90;100.00;55170.78;2089806;28;20697;-64
2022/03/04 02:23:53;;;;;;;;;;;;;;;-143.90;100.00;55158.88;2101631;28;19923;-63
2022/03/04 02:25:13;;;;;;;;;;;;;;;-143.90;100.00;55166.81;2091897;28;19924;-64
2022/03/04 02:26:34;;;;;;;;;;;;;;;-143.90;100.00;55172.78;2095190;28;19931;-64
2022/03/04 02:27:55;;;;;;;;;;;;;;;-143.90;100.00;55143.00;2098272;28;20019;-63
2022/03/04 02:29:15;;;;;;;;;;;;;;;-143.90;100.00;55174.75;2096576;28;19927;-63
2022/03/04 02:30:36;;;;;;;;;;;;;;;-143.90;100.00;55190.66;2097779;28;19931;-63
2022/03/04 02:31:57;;;;;;;;;;;;;;;-143.90;100.00;55156.88;2096756;28;19942;-63
2022/03/04 02:33:18;;;;;;;;;;;;;;;-143.90;100.00;55154.91;2097195;28;20007;-62
2022/03/04 02:34:39;;;;;;;;;;;;;;;-143.90;100.00;55158.88;2097723;28;19994;-63
2022/03/04 02:35:59;;;;;;;;;;;;;;;-143.90;100.00;55164.84;2095391;28;20024;-63
2022/03/04 02:37:20;;;;;;;;;;;;;;;-143.90;100.00;55164.84;2096308;28;19924;-62
2022/03/04 02:38:40;;;;;;;;;;;;;;;-143.90;100.00;55166.81;2096497;28;19921;-63
2022/03/04 02:40:02;;;;;;;;;;;;;;;-143.90;100.00;55166.81;2103002;28;19920;-63
2022/03/04 02:41:22;;;;;;;;;;;;;;;-143.90;100.00;55148.94;2091982;28;20773;-63
2022/03/04 02:42:43;;;;;;;;;;;;;;;-143.90;100.00;55162.84;2093937;28;19924;-63
2022/03/04 02:44:06;;;;;;;;;;;;;;;-143.90;100.00;55143.00;2097093;28;19935;-63
2022/03/04 02:45:27;;;;;;;;;;;;;;;-143.90;100.00;55156.88;2098112;28;19927;-63
2022/03/04 02:46:47;;;;;;;;;;;;;;;-143.90;100.00;55143.00;2097168;28;19965;-63
2022/03/04 02:48:08;;;;;;;;;;;;;;;-143.90;100.00;55148.94;2097162;28;19946;-63
2022/03/04 02:49:29;;;;;;;;;;;;;;;-143.90;100.00;55139.03;2096306;28;19967;-63
2022/03/04 02:50:49;;;;;;;;;;;;;;;-143.90;100.00;55166.81;2098066;28;19924;-63
2022/03/04 02:52:10;;;;;;;;;;;;;;;-143.90;100.00;55109.22;2097247;28;19920;-63
2022/03/04 02:53:31;;;;;;;;;;;;;;;-143.90;100.00;55174.75;2096967;28;20272;-63
2022/03/04 02:54:51;;;;;;;;;;;;;;;-143.90;100.00;55174.75;2097340;28;19920;-64
2022/03/04 02:56:12;;;;;;;;;;;;;;;-143.90;100.00;55174.75;2096480;28;19928;-63
2022/03/04 02:57:33;;;;;;;;;;;;;;;-143.90;100.00;55190.66;2096393;28;20407;-63
2022/03/04 02:58:54;;;;;;;;;;;;;;;-143.90;100.00;55154.91;2097409;28;19924;-63
2022/03/04 03:00:15;;;;;;;;;;;;;;;-143.90;100.00;55182.69;2096725;28;19920;-63
2022/03/04 03:01:36;;;;;;;;;;;;;;;-143.90;100.00;55188.66;2097788;28;20415;-63
2022/03/04 03:02:56;;;;;;;;;;;;;;;-143.90;100.00;55146.97;2097131;28;19963;-63
2022/03/04 03:04:18;;;;;;;;;;;;;;;-143.90;100.00;55160.84;2105866;28;19943;-63
2022/03/04 03:05:40;;;;;;;;;;;;;;;-143.90;100.00;55158.88;2099182;28;19998;-63
2022/03/04 03:07:00;;;;;;;;;;;;;;;-143.90;100.00;55127.09;2096933;28;19997;-63
2022/03/04 03:08:21;;;;;;;;;;;;;;;-143.90;100.00;55156.88;2098775;28;19950;-61
2022/03/04 03:09:42;;;;;;;;;;;;;;;-143.90;100.00;55154.91;2095867;28;19959;-62
2022/03/04 03:11:03;;;;;;;;;;;;;;;-143.90;100.00;55162.84;2096168;28;19926;-63
2022/03/04 03:12:23;;;;;;;;;;;;;;;-143.90;100.00;55152.91;2096756;28;19939;-63
2022/03/04 03:13:44;;;;;;;;;;;;;;;-143.90;100.00;55139.03;2096240;28;19994;-63
2022/03/04 03:15:05;;;;;;;;;;;;;;;-143.90;100.00;55174.75;2097914;28;19920;-63
2022/03/04 03:16:26;;;;;;;;;;;;;;;-143.90;100.00;55162.84;2097895;28;19924;-63
2022/03/04 03:17:46;;;;;;;;;;;;;;;-143.90;100.00;55168.81;2098028;28;19998;-63
2022/03/04 03:19:08;;;;;;;;;;;;;;;-143.90;100.00;55131.06;2097222;28;19942;-61
2022/03/04 03:20:29;;;;;;;;;;;;;;;-143.90;100.00;55162.84;2095766;28;20279;-63
2022/03/04 03:21:50;;;;;;;;;;;;;;;-143.90;100.00;55182.69;2099390;28;19931;-63
2022/03/04 03:23:11;;;;;;;;;;;;;;;-143.90;100.00;55178.72;2098993;28;19926;-63
2022/03/04 03:24:31;;;;;;;;;;;;;;;-143.90;100.00;55170.78;2099641;28;19913;-61
2022/03/04 03:25:52;;;;;;;;;;;;;;;-143.90;100.00;55158.88;2098841;28;20065;-63
2022/03/04 03:27:14;;;;;;;;;;;;;;;-143.90;100.00;55170.78;2098827;28;19959;-63
2022/03/04 03:28:35;;;;;;;;;;;;;;;-143.90;100.00;55186.69;2097119;28;19924;-63
2022/03/04 03:29:56;;;;;;;;;;;;;;;-143.90;100.00;55154.91;2098021;28;19935;-67
2022/03/04 03:31:16;;;;;;;;;;;;;;;-143.90;100.00;55158.88;2098902;28;19920;-62
2022/03/04 03:32:37;;;;;;;;;;;;;;;-143.90;100.00;55164.84;2099884;28;19920;-62
2022/03/04 03:33:58;;;;;;;;;;;;;;;-143.90;100.00;55166.81;2098458;28;19980;-62
2022/03/04 03:35:18;;;;;;;;;;;;;;;-143.90;100.00;55148.94;2097406;28;19924;-62
2022/03/04 03:36:39;;;;;;;;;;;;;;;-143.90;100.00;55184.69;2098369;28;19920;-62
2022/03/04 03:38:00;;;;;;;;;;;;;;;-143.90;100.00;55154.91;2099253;28;19924;-62
2022/03/04 03:39:21;;;;;;;;;;;;;;;-143.90;100.00;55180.72;2098021;28;19927;-63
2022/03/04 03:40:42;;;;;;;;;;;;;;;-143.90;100.00;55186.69;2097776;28;19920;-62
2022/03/04 03:42:03;;;;;;;;;;;;;;;-143.90;100.00;55182.69;2096763;28;19928;-62
2022/03/04 03:43:24;;;;;;;;;;;;;;;-143.90;100.00;55143.00;2097981;28;20394;-63
2022/03/04 03:44:45;;;;;;;;;;;;;;;-143.90;100.00;55182.69;2098200;28;19968;-62
2022/03/04 03:46:05;;;;;;;;;;;;;;;-143.90;100.00;55156.88;2098839;28;19920;-62
2022/03/04 03:47:26;;;;;;;;;;;;;;;-143.90;100.00;55184.69;2097444;28;20394;-63
2022/03/04 03:48:46;;;;;;;;;;;;;;;-143.90;100.00;55143.00;2098045;28;19926;-62
2022/03/04 03:50:09;;;;;;;;;;;;;;;-143.90;100.00;55174.75;2097994;28;19971;-62
2022/03/04 03:51:30;;;;;;;;;;;;;;;-143.90;100.00;55156.88;2099118;28;19920;-63
2022/03/04 03:52:50;;;;;;;;;;;;;;;-143.90;100.00;55176.75;2098451;28;20028;-62
2022/03/04 03:54:11;;;;;;;;;;;;;;;-143.90;100.00;55182.69;2099344;28;20059;-62
2022/03/04 03:55:32;;;;;;;;;;;;;;;-143.90;100.00;55178.72;2097125;28;19931;-62
2022/03/04 03:56:53;;;;;;;;;;;;;;;-143.90;100.00;55143.00;2098860;28;19933;-63
2022/03/04 03:58:13;;;;;;;;;;;;;;;-143.90;100.00;55180.72;2099254;28;19924;-63
2022/03/04 03:59:34;;;;;;;;;;;;;;;-143.90;100.00;55152.91;2097382;28;19920;-62
2022/03/04 04:00:55;;;;;;;;;;;;;;;-143.90;100.00;55192.63;2099771;28;19980;-62
2022/03/04 04:02:15;;;;;;;;;;;;;;;-143.90;100.00;55162.84;2098968;28;19920;-62
2022/03/04 04:03:36;;;;;;;;;;;;;;;-143.90;100.00;55150.94;2098719;28;19951;-61
2022/03/04 04:04:57;;;;;;;;;;;;;;;-143.90;100.00;55184.69;2098780;28;20016;-61
2022/03/04 04:06:17;;;;;;;;;;;;;;;-143.90;100.00;55190.66;2100847;28;19998;-62
2022/03/04 04:07:38;;;;;;;;;;;;;;;-143.90;100.00;55146.97;2098588;28;19970;-62
2022/03/04 04:09:02;;;;;;;;;;;;;;;-143.90;100.00;55150.94;2097977;28;19924;-61
2022/03/04 04:10:22;;;;;;;;;;;;;;;-143.90;100.00;55135.03;2098548;28;19999;-62
2022/03/04 04:11:43;;;;;;;;;;;;;;;-143.90;100.00;55150.94;2098052;28;20022;-63
2022/03/04 04:13:04;;;;;;;;;;;;;;;-143.90;100.00;55135.03;2099014;28;20409;-62
2022/03/04 04:14:25;;;;;;;;;;;;;;;-143.90;100.00;55170.78;2098825;28;19944;-62
2022/03/04 04:15:46;;;;;;;;;;;;;;;-143.90;100.00;55154.91;2097998;28;20592;-62
2022/03/04 04:17:06;;;;;;;;;;;;;;;-143.90;100.00;55168.81;2097972;28;19924;-62
2022/03/04 04:18:27;;;;;;;;;;;;;;;-143.90;100.00;55162.84;2099167;28;20318;-62
2022/03/04 04:19:48;;;;;;;;;;;;;;;-143.90;100.00;55190.66;2097987;28;19928;-62
2022/03/04 04:21:08;;;;;;;;;;;;;;;-143.90;100.00;55188.66;2096961;28;19953;-62
2022/03/04 04:22:29;;;;;;;;;;;;;;;-143.90;100.00;55170.78;2090722;28;20423;-62
2022/03/04 04:23:50;;;;;;;;;;;;;;;-143.90;100.00;55156.88;2096577;28;19927;-62
2022/03/04 04:25:10;;;;;;;;;;;;;;;-143.90;100.00;55162.84;2097464;28;19974;-62
2022/03/04 04:26:31;;;;;;;;;;;;;;;-143.90;100.00;55170.78;2097761;28;19920;-63
2022/03/04 04:27:52;;;;;;;;;;;;;;;-143.90;100.00;55160.84;2098524;28;19931;-61
2022/03/04 04:29:12;;;;;;;;;;;;;;;-143.90;100.00;55162.84;2098535;28;19939;-62
2022/03/04 04:30:33;;;;;;;;;;;;;;;-143.90;100.00;55162.84;2098355;28;19919;-62
2022/03/04 04:31:54;;;;;;;;;;;;;;;-143.90;100.00;55216.47;2104707;28;20496;-62
2022/03/04 04:33:15;;;;;;;;;;;;;;;-143.90;100.00;55162.84;2099866;28;20535;-62
2022/03/04 04:34:35;;;;;;;;;;;;;;;-143.90;100.00;55170.78;2096840;28;20354;-63
2022/03/04 04:35:56;;;;;;;;;;;;;;;-143.90;100.00;55135.03;2098057;28;20623;-63
2022/03/04 04:37:17;;;;;;;;;;;;;;;-143.90;100.00;55218.44;2097193;28;19920;-63
2022/03/04 04:38:38;;;;;;;;;;;;;;;-143.90;100.00;55160.84;2089738;28;20019;-62
2022/03/04 04:39:58;;;;;;;;;;;;;;;-143.90;100.00;55174.75;2095678;28;20253;-62
2022/03/04 04:41:19;;;;;;;;;;;;;;;-143.90;100.00;55154.91;2098180;28;19920;-62
2022/03/04 04:42:39;;;;;;;;;;;;;;;-143.90;100.00;55188.66;2099247;28;20010;-63
2022/03/04 04:44:00;;;;;;;;;;;;;;;-143.90;100.00;55146.97;2090080;28;19920;-63
2022/03/04 04:45:21;;;;;;;;;;;;;;;-143.90;100.00;55143.00;2094933;28;19924;-63
2022/03/04 04:46:42;;;;;;;;;;;;;;;-143.90;100.00;55186.69;2098280;28;19921;-63
2022/03/04 04:48:02;;;;;;;;;;;;;;;-143.90;100.00;55192.63;2097861;28;19967;-63
2022/03/04 04:49:25;;;;;;;;;;;;;;;-143.90;100.00;55119.16;2098440;28;19935;-63
2022/03/04 04:50:46;;;;;;;;;;;;;;;-143.90;100.00;55190.66;2097179;28;19924;-63
2022/03/04 04:52:07;;;;;;;;;;;;;;;-143.90;100.00;55158.88;2098298;28;19925;-63
2022/03/04 04:53:28;;;;;;;;;;;;;;;-143.90;100.00;55154.91;2097818;28;20435;-63
2022/03/04 04:54:48;;;;;;;;;;;;;;;-143.90;100.00;55180.72;2097193;28;19920;-62
2022/03/04 04:56:09;;;;;;;;;;;;;;;-143.90;100.00;55166.81;2098165;28;19971;-63
2022/03/04 04:57:30;;;;;;;;;;;;;;;-143.90;100.00;55182.69;2096649;28;19924;-63
2022/03/04 04:58:51;;;;;;;;;;;;;;;-143.90;100.00;55160.84;2099876;27;20352;-63
2022/03/04 05:00:12;;;;;;;;;;;;;;;-143.90;100.00;55146.97;2098677;28;19956;-63
2022/03/04 05:01:33;;;;;;;;;;;;;;;-143.90;100.00;55148.94;2098457;28;19968;-63
2022/03/04 05:02:53;;;;;;;;;;;;;;;-143.90;100.00;55172.78;2096987;28;19927;-63
2022/03/04 05:04:14;;;;;;;;;;;;;;;-143.90;100.00;55139.03;2096906;28;19931;-63
2022/03/04 05:05:35;;;;;;;;;;;;;;;-143.90;100.00;55186.69;2098018;28;19959;-64
2022/03/04 05:06:56;;;;;;;;;;;;;;;-143.90;100.00;55180.72;2097169;28;19936;-64
2022/03/04 05:08:17;;;;;;;;;;;;;;;-143.90;100.00;55144.97;2094671;28;20021;-63
2022/03/04 05:09:37;;;;;;;;;;;;;;;-143.90;100.00;55158.88;2089152;28;20003;-63
2022/03/04 05:10:58;;;;;;;;;;;;;;;-143.90;100.00;55150.94;2095745;28;20271;-63
2022/03/04 05:12:18;;;;;;;;;;;;;;;-143.90;100.00;55174.75;2096401;28;19936;-63
2022/03/04 05:13:39;;;;;;;;;;;;;;;-143.90;100.00;55174.75;2096773;28;19916;-64
2022/03/04 05:15:00;;;;;;;;;;;;;;;-143.90;100.00;55178.72;2097709;28;19973;-61
2022/03/04 05:16:21;;;;;;;;;;;;;;;-143.90;100.00;55198.59;2097644;28;19921;-63
2022/03/04 05:17:42;;;;;;;;;;;;;;;-143.90;100.00;55131.06;2098848;27;19942;-62
2022/03/04 05:19:02;;;;;;;;;;;;;;;-143.90;100.00;55146.97;2097229;28;19948;-61
2022/03/04 05:20:23;;;;;;;;;;;;;;;-143.90;100.00;55188.66;2096461;28;19928;-63
2022/03/04 05:21:43;;;;;;;;;;;;;;;-143.90;100.00;55127.09;2096115;28;19969;-62
2022/03/04 05:23:04;;;;;;;;;;;;;;;-143.90;100.00;55158.88;2096837;28;19920;-62
2022/03/04 05:24:25;;;;;;;;;;;;;;;-143.90;100.00;55182.69;2097291;28;20031;-63
2022/03/04 05:25:46;;;;;;;;;;;;;;;-143.90;100.00;55143.00;2097682;28;19931;-63
2022/03/04 05:27:07;;;;;;;;;;;;;;;-143.90;100.00;55150.94;2098016;28;19927;-63
2022/03/04 05:28:28;;;;;;;;;;;;;;;-143.90;100.00;55146.97;2095597;28;19924;-63
2022/03/04 05:29:49;;;;;;;;;;;;;;;-143.90;100.00;55174.75;2097505;28;19981;-62
2022/03/04 05:31:10;;;;;;;;;;;;;;;-143.90;100.00;55174.75;2097940;28;19923;-63
2022/03/04 05:32:30;;;;;;;;;;;;;;;-143.90;100.00;55158.88;2097451;28;20364;-63
2022/03/04 05:33:51;;;;;;;;;;;;;;;-143.90;100.00;55162.84;2098057;28;20039;-63
2022/03/04 05:35:13;;;;;;;;;;;;;;;-143.90;100.00;55178.72;2097434;28;19920;-63
2022/03/04 05:36:34;;;;;;;;;;;;;;;-143.90;100.00;55160.84;2096946;28;19923;-63
2022/03/04 05:37:55;;;;;;;;;;;;;;;-143.90;100.00;55198.59;2098681;27;19920;-63
2022/03/04 05:39:15;;;;;;;;;;;;;;;-143.90;100.00;55174.75;2097208;28;19952;-63
2022/03/04 05:40:36;;;;;;;;;;;;;;;-143.90;100.00;55170.78;2096704;28;19924;-63
2022/03/04 05:41:57;;;;;;;;;;;;;;;-143.90;100.00;55158.88;2097327;28;19966;-63
2022/03/04 05:43:18;;;;;;;;;;;;;;;-143.90;100.00;55162.84;2096460;28;19927;-63
2022/03/04 05:44:39;;;;;;;;;;;;;;;-143.90;100.00;55178.72;2097595;28;20109;-63
2022/03/04 05:45:59;;;;;;;;;;;;;;;-143.90;100.00;55198.59;2098739;28;19916;-63
2022/03/04 05:47:20;;;;;;;;;;;;;;;-143.90;100.00;55174.75;2098527;28;20375;-63
2022/03/04 05:48:41;;;;;;;;;;;;;;;-143.90;100.00;55158.88;2095629;28;20027;-63
2022/03/04 05:50:02;;;;;;;;;;;;;;;-143.90;100.00;55170.78;2097479;28;19982;-63
2022/03/04 05:51:23;;;;;;;;;;;;;;;-143.90;100.00;55182.69;2096982;28;19977;-63
2022/03/04 05:52:43;;;;;;;;;;;;;;;-143.90;100.00;55190.66;2097349;28;20015;-63
2022/03/04 05:54:04;;;;;;;;;;;;;;;-143.90;100.00;55152.91;2097288;28;19960;-63
2022/03/04 05:55:26;;;;;;;;;;;;;;;-143.90;100.00;55182.69;2097294;28;19928;-63
2022/03/04 05:56:46;;;;;;;;;;;;;;;-143.90;100.00;55166.81;2096859;28;19927;-62
2022/03/04 05:58:07;;;;;;;;;;;;;;;-143.90;100.00;55172.78;2096719;28;20376;-63
2022/03/04 05:59:28;;;;;;;;;;;;;;;-143.90;100.00;55129.09;2097204;28;20031;-63
2022/03/04 06:00:48;;;;;;;;;;;;;;;-143.90;100.00;55154.91;2088651;28;19932;-63
2022/03/04 06:02:09;;;;;;;;;;;;;;;-143.90;100.00;55150.94;2095420;28;20015;-63
2022/03/04 06:03:29;;;;;;;;;;;;;;;-143.90;100.00;55176.75;2105726;28;19954;-63
2022/03/04 06:04:50;;;;;;;;;;;;;;;-143.90;100.00;55166.81;2099637;28;19960;-63
2022/03/04 06:06:11;;;;;;;;;;;;;;;-143.90;100.00;55198.59;2097097;28;19924;-63
2022/03/04 06:07:35;;;;;;;;;;;;;;;-143.90;100.00;55186.69;2096757;28;19925;-63
2022/03/04 06:08:55;;;;;;;;;;;;;;;-143.90;100.00;55194.63;2087549;28;19924;-64
2022/03/04 06:10:16;;;;;;;;;;;;;;;-143.90;100.00;55158.88;2095681;28;20359;-62
2022/03/04 06:11:37;;;;;;;;;;;;;;;-143.90;100.00;55162.84;2096973;28;19938;-65
2022/03/04 06:12:57;;;;;;;;;;;;;;;-143.90;100.00;55170.78;2096856;28;19927;-62
2022/03/04 06:14:18;;;;;;;;;;;;;;;-143.90;100.00;55172.78;2097959;28;19970;-64
2022/03/04 06:15:38;;;;;;;;;;;;;;;-143.90;100.00;55131.06;2097702;28;20042;-63
2022/03/04 06:16:59;;;;;;;;;;;;;;;-143.90;100.00;55158.88;2096860;28;19926;-64
2022/03/04 06:18:20;;;;;;;;;;;;;;;-143.90;100.00;55125.13;2098017;28;19923;-65
2022/03/04 06:19:41;;;;;;;;;;;;;;;-143.90;100.00;55150.94;2097270;28;19927;-64
2022/03/04 06:21:02;;;;;;;;;;;;;;;-143.90;100.00;55154.91;2096110;28;20046;-62
2022/03/04 06:22:23;;;;;;;;;;;;;;;-143.90;100.00;55123.13;2096683;28;19920;-62
2022/03/04 06:23:44;;;;;;;;;;;;;;;-143.90;100.00;55182.69;2097134;28;19935;-62
2022/03/04 06:25:05;;;;;;;;;;;;;;;-143.90;100.00;55182.69;2096501;28;19951;-62
2022/03/04 06:26:26;;;;;;;;;;;;;;;-143.90;100.00;55150.94;2097831;28;19924;-62
2022/03/04 06:27:51;;;;;;;;;;;;;;;-143.90;100.00;55135.03;2098733;28;19924;-64
2022/03/04 06:29:11;;;;;;;;;;;;;;;-143.90;100.00;55137.03;2105077;28;19931;-62
2022/03/04 06:30:34;;;;;;;;;;;;;;;-143.90;100.00;55123.13;2099400;28;19920;-62
2022/03/04 06:31:54;;;;;;;;;;;;;;;-143.90;100.00;55170.78;2096655;28;19916;-62
2022/03/04 06:33:30;;;;;;;;;;;;;;;-143.90;100.00;55144.97;2096855;28;19967;-62
2022/03/04 06:34:51;;;;;;;;;;;;;;;-143.90;100.00;55162.84;2096319;28;20527;-64
2022/03/04 06:36:13;;;;;;;;;;;;;;;-143.90;100.00;55164.84;2097568;28;19924;-62
2022/03/04 06:37:34;;;;;;;;;;;;;;;-143.90;100.00;55111.22;2097168;28;20416;-64
2022/03/04 06:38:55;;;;;;;;;;;;;;;-143.90;100.00;55121.16;2096853;28;20016;-62
2022/03/04 06:40:16;;;;;;;;;;;;;;;-143.90;100.00;55174.75;2095800;28;19916;-62
2022/03/04 06:41:37;;;;;;;;;;;;;;;-143.90;100.00;55184.69;2096908;28;20011;-61
2022/03/04 06:42:58;;;;;;;;;;;;;;;-143.90;100.00;55156.88;2097283;28;19923;-62
2022/03/04 06:44:19;;;;;;;;;;;;;;;-143.90;100.00;55154.91;2097918;28;20044;-62
2022/03/04 06:45:41;;;;;;;;;;;;;;;-143.90;100.00;55198.59;2096556;28;19920;-62